METAR Data
IDs: Format: Raw Decoded Include TAF

Data at: 0756 UTC 18 Nov 2018

PAHN 180754Z AUTO 29011KT 3SM BR OVC013 01/00 A2997 RMK AO2 UPB0657E26B48E51RAB26E48 SLP151 P0000 T00060000 TSNO
PAHN 180710Z AUTO 29012KT 2SM UP BR SCT009 OVC013 00/00 A2996 RMK AO2 UPB0657 P0000 T00000000 TSNO
PAHN 180700Z AUTO 30011KT 2 1/2SM UP BR FEW009 OVC015 01/00 A2996 RMK AO2 UPB0657 P0000 T00060000 TSNO
PAHN 180654Z AUTO 29011KT 3SM BR FEW010 OVC015 01/00 A2995 RMK AO2 UPE02 SLP145 P0000 T00060000 TSNO
PAHN 180634Z AUTO 29010KT 3SM BR OVC015 00/00 A2995 RMK AO2 UPE02 P0000 T00000000 TSNO
PAHN 180554Z AUTO 29011KT 2 1/2SM UP BR OVC016 00/00 A2994 RMK AO2 UPE14B52 SLP141 P0000 60001 T00000000 10011 20000 50005 TSNO
PAHN 180514Z AUTO 29010KT 3SM BR OVC016 01/00 A2994 RMK AO2 UPE14 P0000 T00060000 TSNO
PAHN 180454Z AUTO 29012KT 2SM UP BR OVC015 01/01 A2995 RMK AO2 UPB0357E23B30E36B45RAB36E45 SLP143 P0000 T00110006 TSNO
PAHN 180447Z AUTO 30011KT 1 3/4SM UP BR OVC015 01/01 A2995 RMK AO2 UPB0357E23B30E36B45RAB36E45 P0000 T00110006 TSNO
PAHN 180438Z AUTO 30011KT 2SM -RA BR OVC015 01/00 A2995 RMK AO2 UPB0357E23B30E36RAB36 P0000 T00060000 TSNO
PAHN 180426Z AUTO 29012KT 3SM BR OVC015 01/00 A2994 RMK AO2 UPB0357E23 P0000 T00060000 TSNO
PAHN 180419Z AUTO 29011KT 2 1/2SM UP BR OVC015 01/00 A2994 RMK AO2 UPB0357 P0000 T00060000 TSNO
PAHN 180354Z AUTO 29012KT 7SM OVC014 01/00 A2994 RMK AO2 SLP139 T00110000 TSNO
PAHN 180345Z AUTO 29012KT 10SM OVC014 01/00 A2993 RMK AO2 T00060000 TSNO
PAHN 180254Z AUTO 29003KT 10SM FEW006 OVC023 01/00 A2992 RMK AO2 UPE05RAB05E38 SLP136 P0000 60001 T00060000 51008 TSNO
PAHN 180246Z AUTO 00000KT 10SM SCT005 OVC025 01/00 A2992 RMK AO2 UPE05RAB05E38 P0000 T00060000 TSNO
PAHN 180154Z AUTO 29015KT 7SM UP OVC025 00/M01 A2992 RMK AO2 RAE23UPB23 SLP133 P0000 T00001006 TSNO
PAHN 180054Z AUTO 29015KT 8SM -RA OVC019 01/00 A2991 RMK AO2 UPB25E31 SLP131 P0001 T00110000 TSNO
PAHN 172354Z AUTO 30014KT 4SM -RA BR OVC017 01/00 A2990 RMK AO2 RAB33FZRAE33 SLP128 P0000 60010 I1005 I6018 T00110000 10011 21017 55001 TSNO
PAHN 172335Z AUTO 29015KT 4SM -RA BR OVC015 01/M01 A2989 RMK AO2 RAB33FZRAE33 P0000 I1005 T00061006 TSNO
PAHN 172322Z AUTO 30013KT 4SM -FZRA BR OVC011 01/M01 A2990 RMK AO2 P0000 I1005 T00061006 TSNO
PAHN 172254Z AUTO 29015KT 4SM -FZRA BR OVC008 M01/M01 A2989 RMK AO2 UPB12E40FZRAE03B40 CIG 007V011 SLP124 P0000 I1000 T10061011 TSNO
PAHN 172246Z AUTO 29016KT 4SM -FZRA BR OVC008 M01/M01 A2988 RMK AO2 UPB12E40FZRAE03B40 P0000 I1000 T10061011 TSNO
PAHN 172209Z AUTO 30014G20KT 10SM OVC009 M01/M02 A2989 RMK AO2 FZRAE03 CIG 006V014 P0000 I1000 T10061017 TSNO
PAHN 172154Z AUTO 28007KT 250V330 8SM -FZRA OVC010 00/M01 A2988 RMK AO2 CIG 008V014 SLP120 P0001 I1003 T00001006 TSNO
PAHN 172054Z AUTO 29010KT 4SM -FZRA BR OVC013 M01/M02 A2991 RMK AO2 SLP129 P0002 60009 I1003 I3010 T10061017 57016 TSNO
PAHN 171954Z AUTO 31009KT 4SM -FZRA BR OVC013 M01/M02 A2993 RMK AO2 SLP136 P0002 I1003 T10111017 TSNO
PAHN 171854Z AUTO 30009KT 3SM -FZRA BR OVC013 M01/M02 A2995 RMK AO2 SLP145 P0005 I1004 T10111017 TSNO
PAHN 171846Z AUTO 30007KT 4SM -FZRA BR OVC013 M01/M02 A2995 RMK AO2 P0004 I1003 T10111017 TSNO
PAHN 171823Z AUTO 31010KT 4SM FZRA BR OVC014 M02/M02 A2996 RMK AO2 P0002 I1002 T10171022 TSNO
PAHN 171754Z AUTO 30008KT 7SM -FZRA OVC013 M02/M02 A2996 RMK AO2 SLP149 P0008 60053 I1005 I6009 T10171022 11017 21028 56019 TSNO
PAHN 171723Z AUTO 29007KT 5SM -FZRA BR OVC014 M02/M02 A2996 RMK AO2 P0006 I1003 T10171022 TSNO
PAHN 171654Z AUTO 29007KT 4SM FZRA BR OVC015 M02/M02 A2997 RMK AO2 UPB08E21FZRAB21SNE08 SLP152 P0015 I1004 T10171022 TSNO
PAHN 171627Z AUTO 28008KT 4SM FZRA BR OVC013 M02/M03 A2998 RMK AO2 UPB08E21FZRAB21SNE08 P0007 I1001 T10221028 TSNO
PAHN 171609Z AUTO 29009KT 4SM UP BR OVC013 M02/M03 A2998 RMK AO2 UPB08SNE08 P0003 T10221028 TSNO
PAHN 171554Z AUTO 29007KT 4SM -SN BR OVC015 M02/M03 A2999 RMK AO2 UPB49E51FZRAB51E54SNE49B54 SLP157 P0006 I1000 T10171028 TSNO
PAHN 171546Z AUTO 28008KT 3SM -SN BR OVC015 M02/M03 A2999 RMK AO2 P0005 T10221028 TSNO
PAHN 171528Z AUTO 30008KT 2SM -SN BR SCT008 OVC015 M03/M03 A3000 RMK AO2 P0004 T10281033 TSNO
PAHN 171517Z AUTO 30007KT 1 1/2SM -SN BR BKN007 OVC011 M03/M03 A3001 RMK AO2 P0002 T10281033 TSNO
PAHN 171504Z AUTO 30010KT 2 1/2SM -SN BR OVC009 M03/M03 A3002 RMK AO2 P0001 T10281033 TSNO
PAHN 171454Z AUTO 29009KT 3SM -SN BR OVC009 M03/M04 A3002 RMK AO2 CIG 006V013 SLP167 P0005 60024 T10281039 56025 TSNO
PAHN 171449Z AUTO 30010KT 3SM -SN BR SCT006 OVC011 M03/M04 A3002 RMK AO2 P0005 TSNO
PAHN 171439Z AUTO 29007KT 2SM -SN BR SCT007 OVC011 M03/M03 A3002 RMK AO2 P0004 T10281033 TSNO
PAHN 171354Z AUTO 30006KT 1 1/2SM -SN BR BKN006 OVC013 M03/M04 A3005 RMK AO2 SLP179 P0010 T10281039 TSNO
PAHN 171337Z AUTO 29003KT 1 1/2SM -SN BR BKN008 OVC013 M03/M03 A3006 RMK AO2 P0008 T10281033 TSNO
PAHN 171254Z AUTO 30003KT 3/4SM -SN BR VV009 M03/M03 A3009 RMK AO2 SLP192 P0009 T10281033 TSNO
PAHN 171230Z AUTO 31003KT 3/4SM -SN BR OVC012 M03/M03 A3011 RMK AO2 P0005 T10281033 TSNO
PAHN 171221Z AUTO 30003KT 1SM -SN BR FEW005 OVC012 M03/M03 A3011 RMK AO2 P0003 T10281033 TSNO
PAHN 171154Z AUTO 30005KT 1 1/2SM -SN BR OVC012 M03/M03 A3013 RMK AO2 SLP205 P0005 60018 70018 T10281033 11017 21028 58030 TSNO
PAHN 171141Z AUTO 31003KT 1 1/2SM -SN BR FEW006 OVC011 M03/M03 A3012 RMK AO2 P0004 T10281033 TSNO
PAHN 171104Z AUTO 29004KT 1SM -SN BR VV008 M02/M03 A3015 RMK AO2 P0002 T10221033 TSNO
PAHN 171054Z AUTO 30003KT 3/4SM -SN BR FEW005 BKN010 OVC016 M02/M03 A3016 RMK AO2 SLP214 P0008 T10221028 TSNO
PAHN 171029Z AUTO 00000KT 3/4SM -SN BR VV010 M02/M03 A3017 RMK AO2 P0005 T10221033 TSNO
PAHN 171009Z AUTO 30004KT 1/2SM SN FZFG VV008 M02/M03 A3018 RMK AO2 P0002 T10221033 TSNO
PAHN 170954Z AUTO 30003KT 1/2SM SN FZFG BKN010 OVC016 M03/M03 A3019 RMK AO2 SLP227 P0005 T10281033 TSNO
PAHN 170942Z AUTO 00000KT 3/4SM -SN BR OVC014 M02/M03 A3020 RMK AO2 P0002 T10221033 TSNO
PAHN 170927Z AUTO 00000KT 1 1/2SM -SN BR OVC016 M02/M04 A3020 RMK AO2 P0000 T10221039 TSNO
PAHN 170854Z AUTO 10004KT 2 1/2SM -SN BR OVC020 M02/M04 A3022 RMK AO2 SNB36 SLP235 P0000 60000 T10221044 410061039 58022 TSNO
PAHN 170810Z AUTO 00000KT 10SM BKN023 BKN030 OVC070 M02/M05 A3024 RMK AO2 T10171050 TSNO
PAHN 170754Z AUTO 00000KT 10SM FEW025 BKN050 OVC070 M02/M05 A3024 RMK AO2 SLP242 T10171050 TSNO
PAHN 170654Z AUTO 29003KT 10SM FEW055 OVC070 M02/M05 A3027 RMK AO2 SLP251 T10221050 TSNO
PAHN 170554Z AUTO 28008KT 10SM OVC070 M02/M06 A3028 RMK AO2 SLP257 T10221056 11022 21033 58020 TSNO
PAHN 170454Z AUTO 29008KT 10SM OVC070 M02/M06 A3031 RMK AO2 SLP265 T10221056 TSNO
PAHN 170354Z AUTO 29010KT 10SM BKN080 M03/M06 A3033 RMK AO2 SLP273 T10281056 TSNO
PAHN 170254Z AUTO 29012KT 10SM BKN120 M03/M06 A3034 RMK AO2 SLP277 T10281061 58018 TSNO
PAHN 170154Z AUTO 29010KT 10SM CLR M03/M06 A3036 RMK AO2 SLP284 T10281061 TSNO
PAHN 170054Z AUTO 29009KT 10SM CLR M03/M06 A3038 RMK AO2 SLP291 T10281061 TSNO
PAHN 162354Z AUTO 29010KT 10SM CLR M02/M06 A3039 RMK AO2 SLP295 T10221061 11017 21039 58020 TSNO
PAHN 162254Z AUTO 29011KT 9SM CLR M02/M06 A3042 RMK AO2 SLP302 T10221061 TSNO
PAHN 162154Z AUTO 30012KT 9SM CLR M02/M07 A3043 RMK AO2 SLP308 T10221067 TSNO
PAHN 162054Z AUTO 29012KT CLR M03/M07 A3045 RMK AO2 SLP315 T10281067 58008 TSNO $